Time;durP1;ratioP1;P1;durP2;ratioP2;P2;SDS_P1;SDS_P2;PMS_P1;PMS_P2;Temp;Humidity;BMP_temperature;BMP_pressure;BME280_temperature;BME280_humidity;BME280_pressure;Samples;Min_cycle;Max_cycle;Signal;HPM_P1;HPM_P2
2023/09/20 00:00:25;;;;;;;;;;;18.70;68.30;;;;;;4952077;29;19918;-88
2023/09/20 00:02:51;;;;;;;;;;;18.70;69.00;;;;;;4943182;29;20001;-88
2023/09/20 00:05:21;;;;;;;;;;;18.80;68.50;;;;;;4948787;29;20467;-88
2023/09/20 00:07:48;;;;;;;;;;;18.80;68.30;;;;;;4947606;29;19915;-87
2023/09/20 00:10:14;;;;;;;;;;;18.60;68.70;;;;;;4950369;29;19921;-88
2023/09/20 00:12:40;;;;;;;;;;;18.60;68.90;;;;;;4952958;28;20435;-87
2023/09/20 00:15:07;;;;;;;;;;;18.50;68.90;;;;;;4954301;28;19953;-88
2023/09/20 00:17:34;;;;;;;;;;;18.50;69.30;;;;;;4951142;28;19965;-87
2023/09/20 00:20:20;;;;;;;;;;;18.70;68.70;;;;;;4945454;29;19922;-88
2023/09/20 00:23:04;;;;;;;;;;;18.70;68.80;;;;;;4944048;28;19921;-89
2023/09/20 00:25:38;;;;;;;;;;;18.60;68.90;;;;;;4951575;29;19914;-88
2023/09/20 00:28:11;;;;;;;;;;;18.60;69.30;;;;;;4946496;29;19965;-88
2023/09/20 00:30:37;;;;;;;;;;;18.50;69.40;;;;;;4944742;29;19941;-88
2023/09/20 00:33:11;;;;;;;;;;;18.50;69.50;;;;;;4951734;28;20348;-88
2023/09/20 00:35:40;;;;;;;;;;;18.40;69.80;;;;;;4946624;29;19910;-88
2023/09/20 00:38:06;;;;;;;;;;;18.50;69.40;;;;;;4953284;28;19914;-89
2023/09/20 00:40:32;;;;;;;;;;;18.50;69.40;;;;;;4947721;29;20010;-88
2023/09/20 00:42:58;;;;;;;;;;;18.50;69.60;;;;;;4952730;28;19918;-89
2023/09/20 00:45:24;;;;;;;;;;;18.50;69.50;;;;;;4952476;28;20269;-88
2023/09/20 00:47:57;;;;;;;;;;;18.50;69.40;;;;;;4953542;29;20332;-88
2023/09/20 00:50:31;;;;;;;;;;;18.50;69.80;;;;;;4947911;28;20018;-88
2023/09/20 00:53:16;;;;;;;;;;;;;;;;;;;;;
2023/09/20 00:55:51;;;;;;;;;;;18.50;69.80;;;;;;4952472;29;19915;-88
2023/09/20 00:58:19;;;;;;;;;;;18.40;70.10;;;;;;4954923;29;19953;-88
2023/09/20 01:03:39;;;;;;;;;;;18.60;69.90;;;;;;4951492;28;20043;-89
2023/09/20 01:06:20;;;;;;;;;;;18.60;69.60;;;;;;4946118;28;19946;-89
2023/09/20 01:09:06;;;;;;;;;;;18.60;69.70;;;;;;4943063;28;19919;-89
2023/09/20 01:11:57;;;;;;;;;;;18.60;69.80;;;;;;4951523;29;19914;-89
2023/09/20 01:14:27;;;;;;;;;;;18.60;69.70;;;;;;4951766;28;20407;-88
2023/09/20 01:16:54;;;;;;;;;;;18.70;69.70;;;;;;4950802;29;19935;-88
2023/09/20 01:19:19;;;;;;;;;;;18.80;69.60;;;;;;4952787;29;19957;-88
2023/09/20 01:21:46;;;;;;;;;;;18.70;69.50;;;;;;4949343;29;20372;-89
2023/09/20 01:24:12;;;;;;;;;;;18.70;69.70;;;;;;4949367;28;20005;-88
2023/09/20 01:26:39;;;;;;;;;;;18.60;69.90;;;;;;4950295;29;19998;-88
2023/09/20 01:29:04;;;;;;;;;;;18.60;70.10;;;;;;4945834;29;19922;-88
2023/09/20 01:31:30;;;;;;;;;;;18.70;70.00;;;;;;4945870;29;19974;-89
2023/09/20 01:33:56;;;;;;;;;;;18.70;70.10;;;;;;4952576;29;20327;-89
2023/09/20 01:36:21;;;;;;;;;;;18.60;69.90;;;;;;4949308;29;19914;-89
2023/09/20 01:38:47;;;;;;;;;;;18.60;70.20;;;;;;4952681;29;19914;-88
2023/09/20 01:41:12;;;;;;;;;;;18.60;70.30;;;;;;4944971;29;19914;-89
2023/09/20 01:43:38;;;;;;;;;;;18.60;70.40;;;;;;4945590;29;19941;-89
2023/09/20 01:46:04;;;;;;;;;;;18.60;70.50;;;;;;4942090;29;20001;-88
2023/09/20 01:48:30;;;;;;;;;;;18.50;70.60;;;;;;4944857;29;20385;-88
2023/09/20 01:50:56;;;;;;;;;;;18.50;70.80;;;;;;4944021;29;19911;-88
2023/09/20 01:53:25;;;;;;;;;;;18.50;71.00;;;;;;4951377;29;20360;-88
2023/09/20 01:55:51;;;;;;;;;;;18.40;71.40;;;;;;4944820;29;19915;-88
2023/09/20 01:58:16;;;;;;;;;;;18.30;71.60;;;;;;4953578;28;19918;-88
2023/09/20 02:00:42;;;;;;;;;;;18.30;71.70;;;;;;4951816;29;20380;-86
2023/09/20 02:03:13;;;;;;;;;;;18.40;71.50;;;;;;4950531;28;19940;-86
2023/09/20 02:05:39;;;;;;;;;;;18.30;71.50;;;;;;4951125;29;19919;-84
2023/09/20 02:08:06;;;;;;;;;;;18.20;72.00;;;;;;4951685;28;19940;-85
2023/09/20 02:10:31;;;;;;;;;;;18.30;72.00;;;;;;4945957;29;19915;-85
2023/09/20 02:12:57;;;;;;;;;;;18.30;71.90;;;;;;4949602;29;19985;-85
2023/09/20 02:15:30;;;;;;;;;;;18.30;72.30;;;;;;4947518;29;19911;-85
2023/09/20 02:17:55;;;;;;;;;;;18.20;72.50;;;;;;4942194;29;20416;-85
2023/09/20 02:20:23;;;;;;;;;;;18.20;72.50;;;;;;4952805;28;19926;-85
2023/09/20 02:22:50;;;;;;;;;;;18.20;72.80;;;;;;4950056;29;19919;-85
2023/09/20 02:25:20;;;;;;;;;;;18.10;72.60;;;;;;4963677;29;19918;-86
2023/09/20 02:27:49;;;;;;;;;;;18.10;73.10;;;;;;4955596;29;20392;-86
2023/09/20 02:30:16;;;;;;;;;;;18.20;72.80;;;;;;4946987;29;19981;-86
2023/09/20 02:32:42;;;;;;;;;;;18.10;73.10;;;;;;4949967;29;20292;-86
2023/09/20 02:35:08;;;;;;;;;;;18.10;73.70;;;;;;4951764;28;19920;-86
2023/09/20 02:37:34;;;;;;;;;;;17.90;74.20;;;;;;4953870;29;19910;-88
2023/09/20 02:40:00;;;;;;;;;;;18.00;73.60;;;;;;4950167;29;20280;-88
2023/09/20 02:42:26;;;;;;;;;;;17.90;74.20;;;;;;4950999;29;19938;-87
2023/09/20 02:45:26;;;;;;;;;;;17.90;75.00;;;;;;4944798;29;20362;-88
2023/09/20 02:48:22;;;;;;;;;;;;;;;;;;;;;
2023/09/20 02:50:49;;;;;;;;;;;17.80;74.90;;;;;;4952082;29;20288;-88
2023/09/20 02:53:16;;;;;;;;;;;17.80;75.00;;;;;;4952391;29;19917;-87
2023/09/20 02:55:41;;;;;;;;;;;17.80;74.80;;;;;;4949427;29;19910;-87
2023/09/20 02:58:13;;;;;;;;;;;17.90;74.10;;;;;;4953984;29;19926;-88
2023/09/20 03:03:48;;;;;;;;;;;17.70;75.50;;;;;;4950996;29;19958;-88
2023/09/20 03:06:19;;;;;;;;;;;17.60;75.30;;;;;;4951893;28;19918;-87
2023/09/20 03:08:45;;;;;;;;;;;17.60;75.40;;;;;;4953333;29;19915;-87
2023/09/20 03:11:18;;;;;;;;;;;17.70;75.60;;;;;;4951452;29;20292;-88
2023/09/20 03:13:44;;;;;;;;;;;17.70;75.30;;;;;;4949705;29;19921;-88
2023/09/20 03:16:15;;;;;;;;;;;17.60;76.00;;;;;;4945967;29;19910;-88
2023/09/20 03:18:41;;;;;;;;;;;17.70;75.90;;;;;;4950833;29;19915;-88
2023/09/20 03:21:07;;;;;;;;;;;17.60;76.30;;;;;;4951916;28;20001;-88
2023/09/20 03:23:32;;;;;;;;;;;17.60;75.90;;;;;;4949042;28;20005;-87
2023/09/20 03:25:58;;;;;;;;;;;17.50;76.50;;;;;;4953749;28;20447;-87
2023/09/20 03:28:39;;;;;;;;;;;;;;;;;;;;;
2023/09/20 03:31:26;;;;;;;;;;;17.50;76.30;;;;;;4946097;29;19914;-86
2023/09/20 03:34:10;;;;;;;;;;;17.60;76.10;;;;;;4938050;29;19921;-86
2023/09/20 03:36:57;;;;;;;;;;;17.60;76.20;;;;;;4954340;29;19973;-87
2023/09/20 03:39:42;;;;;;;;;;;17.60;75.90;;;;;;4945488;29;19921;-87
2023/09/20 03:42:17;;;;;;;;;;;17.60;76.60;;;;;;4975381;23;19976;-86
2023/09/20 03:47:54;;;;;;;;;;;17.50;76.70;;;;;;4938042;29;20050;-87
2023/09/20 03:50:48;;;;;;;;;;;17.50;76.40;;;;;;4981645;28;20379;-86
2023/09/20 03:53:14;;;;;;;;;;;17.60;76.10;;;;;;4918476;29;20373;-86
2023/09/20 03:55:42;;;;;;;;;;;17.60;76.10;;;;;;4932902;29;19922;-85
2023/09/20 03:58:17;;;;;;;;;;;17.50;76.50;;;;;;4935402;29;19915;-88
2023/09/20 04:00:47;;;;;;;;;;;17.50;77.20;;;;;;4961027;28;19919;-87
2023/09/20 04:03:13;;;;;;;;;;;17.50;77.10;;;;;;4930192;29;19910;-87
2023/09/20 04:05:42;;;;;;;;;;;17.40;77.70;;;;;;4931745;29;19916;-87
2023/09/20 04:08:08;;;;;;;;;;;17.40;77.40;;;;;;4931447;29;20372;-88
2023/09/20 04:11:05;;;;;;;;;;;17.40;77.20;;;;;;4930407;29;19915;-88
2023/09/20 04:16:48;;;;;;;;;;;17.30;77.20;;;;;;4906588;29;19925;-88
2023/09/20 04:19:14;;;;;;;;;;;17.30;77.20;;;;;;4932903;29;19994;-88
2023/09/20 04:27:22;;;;;;;;;;;17.20;77.60;;;;;;4966595;28;19910;-88
2023/09/20 04:29:48;;;;;;;;;;;17.10;78.10;;;;;;4969975;28;19926;-87
2023/09/20 04:32:16;;;;;;;;;;;17.30;77.30;;;;;;4973411;28;19910;-88
2023/09/20 04:34:42;;;;;;;;;;;17.30;77.30;;;;;;4952971;29;19915;-88
2023/09/20 04:37:08;;;;;;;;;;;17.30;77.30;;;;;;4952446;28;20335;-87
2023/09/20 04:40:03;;;;;;;;;;;17.30;76.90;;;;;;4942915;29;19997;-88
2023/09/20 04:42:32;;;;;;;;;;;17.30;77.00;;;;;;4947556;28;19926;-87
2023/09/20 04:44:58;;;;;;;;;;;17.30;77.30;;;;;;4950832;29;19918;-87
2023/09/20 04:47:24;;;;;;;;;;;17.30;77.00;;;;;;4948319;29;19915;-87
2023/09/20 04:49:52;;;;;;;;;;;17.30;77.20;;;;;;4953364;29;19930;-86
2023/09/20 04:52:22;;;;;;;;;;;17.20;77.70;;;;;;4949217;28;19914;-87
2023/09/20 04:54:48;;;;;;;;;;;17.30;77.40;;;;;;4952094;29;20407;-88
2023/09/20 04:57:13;;;;;;;;;;;17.30;77.30;;;;;;4947136;29;19915;-88
2023/09/20 04:59:39;;;;;;;;;;;17.20;77.80;;;;;;4964581;28;19966;-87
2023/09/20 05:02:05;;;;;;;;;;;17.20;78.10;;;;;;4947584;29;19930;-87
2023/09/20 05:04:34;;;;;;;;;;;17.20;78.30;;;;;;4952493;28;19923;-86
2023/09/20 05:07:05;;;;;;;;;;;17.30;77.60;;;;;;4953408;29;19930;-86
2023/09/20 05:09:34;;;;;;;;;;;17.20;77.50;;;;;;4956506;29;19923;-85
2023/09/20 05:12:00;;;;;;;;;;;17.20;78.00;;;;;;4949363;29;19981;-84
2023/09/20 05:14:27;;;;;;;;;;;17.10;78.20;;;;;;4948512;29;19919;-84
2023/09/20 05:16:52;;;;;;;;;;;17.40;77.50;;;;;;4969017;28;19921;-83
2023/09/20 05:19:18;;;;;;;;;;;17.30;77.40;;;;;;4951043;29;20376;-83
2023/09/20 05:21:44;;;;;;;;;;;17.30;77.30;;;;;;4947744;29;20382;-84
2023/09/20 05:24:09;;;;;;;;;;;17.40;77.00;;;;;;4952446;28;19919;-84
2023/09/20 05:26:34;;;;;;;;;;;17.30;77.10;;;;;;4948268;29;19914;-85
2023/09/20 05:29:00;;;;;;;;;;;17.20;77.50;;;;;;4941664;29;19919;-83
2023/09/20 05:31:28;;;;;;;;;;;17.30;77.80;;;;;;4949291;28;20271;-83
2023/09/20 05:33:55;;;;;;;;;;;17.20;77.90;;;;;;4947605;28;19918;-84
2023/09/20 05:36:21;;;;;;;;;;;17.20;78.40;;;;;;4945328;29;19918;-85
2023/09/20 05:38:48;;;;;;;;;;;17.20;79.00;;;;;;4949020;28;19921;-85
2023/09/20 05:41:15;;;;;;;;;;;17.20;79.30;;;;;;4957796;28;20365;-86
2023/09/20 05:43:42;;;;;;;;;;;17.10;78.50;;;;;;4945778;28;19914;-85
2023/09/20 05:46:09;;;;;;;;;;;17.20;78.20;;;;;;4965159;28;20017;-85
2023/09/20 05:48:35;;;;;;;;;;;17.20;78.10;;;;;;4952232;28;19914;-85
2023/09/20 05:51:01;;;;;;;;;;;17.20;78.50;;;;;;4953263;29;19982;-85
2023/09/20 05:53:28;;;;;;;;;;;17.20;78.60;;;;;;4952142;29;19926;-85
2023/09/20 05:55:53;;;;;;;;;;;17.20;78.40;;;;;;4953726;28;19914;-85
2023/09/20 05:58:19;;;;;;;;;;;17.30;78.70;;;;;;4954066;29;19929;-85
2023/09/20 06:00:45;;;;;;;;;;;17.20;78.70;;;;;;4949322;28;19914;-85
2023/09/20 06:03:12;;;;;;;;;;;17.30;78.80;;;;;;4952979;28;19958;-86
2023/09/20 06:05:38;;;;;;;;;;;17.30;78.50;;;;;;4952999;29;19910;-86
2023/09/20 06:08:05;;;;;;;;;;;17.30;79.10;;;;;;4947941;29;20442;-85
2023/09/20 06:10:31;;;;;;;;;;;17.30;78.50;;;;;;4954644;28;19918;-86
2023/09/20 06:12:56;;;;;;;;;;;17.30;78.90;;;;;;4955317;28;19915;-86
2023/09/20 06:15:22;;;;;;;;;;;17.30;78.70;;;;;;4955750;29;19930;-87
2023/09/20 06:17:47;;;;;;;;;;;17.40;78.60;;;;;;4954521;29;19914;-83
2023/09/20 06:20:19;;;;;;;;;;;17.40;79.20;;;;;;4955728;29;19942;-85
2023/09/20 06:22:45;;;;;;;;;;;17.30;78.60;;;;;;4954438;28;20395;-84
2023/09/20 06:25:11;;;;;;;;;;;17.40;78.70;;;;;;4968396;28;20013;-85
2023/09/20 06:27:36;;;;;;;;;;;17.50;78.50;;;;;;4957208;29;19968;-83
2023/09/20 06:30:07;;;;;;;;;;;17.50;78.70;;;;;;4957793;29;19919;-82
2023/09/20 06:32:37;;;;;;;;;;;17.50;79.10;;;;;;4959447;28;19938;-83
2023/09/20 06:35:07;;;;;;;;;;;17.50;78.80;;;;;;4955957;29;19923;-83
2023/09/20 06:37:34;;;;;;;;;;;17.50;79.20;;;;;;4954102;28;20385;-83
2023/09/20 06:39:59;;;;;;;;;;;17.60;79.00;;;;;;4958388;29;19918;-82
2023/09/20 06:42:26;;;;;;;;;;;17.60;78.10;;;;;;4959800;28;19937;-84
2023/09/20 06:44:52;;;;;;;;;;;17.60;78.60;;;;;;4957774;29;20360;-84
2023/09/20 06:47:18;;;;;;;;;;;17.60;78.50;;;;;;4957282;28;19921;-84
2023/09/20 06:49:44;;;;;;;;;;;17.70;78.20;;;;;;4958026;29;19918;-85
2023/09/20 06:52:11;;;;;;;;;;;18.00;77.40;;;;;;4957491;29;19989;-82
2023/09/20 06:54:37;;;;;;;;;;;18.00;77.60;;;;;;4956752;29;19914;-82
2023/09/20 06:57:03;;;;;;;;;;;17.90;77.40;;;;;;4955260;29;20404;-83
2023/09/20 06:59:31;;;;;;;;;;;18.00;77.50;;;;;;4958932;29;19915;-82
2023/09/20 07:01:57;;;;;;;;;;;18.00;77.50;;;;;;4954628;28;20332;-83
2023/09/20 07:04:22;;;;;;;;;;;18.10;76.90;;;;;;4956866;29;19969;-83
2023/09/20 07:06:48;;;;;;;;;;;18.10;76.80;;;;;;4953574;28;20013;-85
2023/09/20 07:09:13;;;;;;;;;;;18.10;76.50;;;;;;4958028;29;19918;-84
2023/09/20 07:11:39;;;;;;;;;;;18.10;76.90;;;;;;4951981;29;19925;-85
2023/09/20 07:14:05;;;;;;;;;;;18.20;76.10;;;;;;4951311;28;20388;-85
2023/09/20 07:16:36;;;;;;;;;;;18.10;76.00;;;;;;4955188;29;20461;-84
2023/09/20 07:19:05;;;;;;;;;;;18.20;76.10;;;;;;4955843;29;19922;-84
2023/09/20 07:21:31;;;;;;;;;;;18.20;76.00;;;;;;4958981;28;19918;-84
2023/09/20 07:23:59;;;;;;;;;;;18.20;75.80;;;;;;4960119;28;19922;-84
2023/09/20 07:26:26;;;;;;;;;;;18.20;75.90;;;;;;4957825;29;19911;-84
2023/09/20 07:28:51;;;;;;;;;;;18.30;75.80;;;;;;4960537;28;19930;-84
2023/09/20 07:31:21;;;;;;;;;;;18.30;75.80;;;;;;4957610;29;19914;-83
2023/09/20 07:33:47;;;;;;;;;;;18.30;76.00;;;;;;4952058;28;19954;-83
2023/09/20 07:36:13;;;;;;;;;;;18.30;75.80;;;;;;4954878;29;20431;-85
2023/09/20 07:38:39;;;;;;;;;;;18.30;76.20;;;;;;4951413;28;19923;-83
2023/09/20 07:41:17;;;;;;;;;;;18.30;76.10;;;;;;4952307;29;19974;-84
2023/09/20 07:43:44;;;;;;;;;;;18.30;76.20;;;;;;4949638;29;19922;-84
2023/09/20 07:46:09;;;;;;;;;;;18.30;76.40;;;;;;4962754;29;19918;-83
2023/09/20 07:48:37;;;;;;;;;;;18.30;76.30;;;;;;4956097;29;22655;-84
2023/09/20 07:51:04;;;;;;;;;;;18.50;75.80;;;;;;4957968;29;19918;-84
2023/09/20 07:53:30;;;;;;;;;;;18.50;76.00;;;;;;4956957;28;19926;-85
2023/09/20 07:56:05;;;;;;;;;;;18.50;76.10;;;;;;4963977;28;19922;-84
2023/09/20 07:58:40;;;;;;;;;;;18.60;75.40;;;;;;4956493;29;19922;-84
2023/09/20 08:01:11;;;;;;;;;;;18.70;75.30;;;;;;4959200;28;19954;-84
2023/09/20 08:03:38;;;;;;;;;;;18.80;75.10;;;;;;4959124;28;19911;-84
2023/09/20 08:06:09;;;;;;;;;;;18.80;75.00;;;;;;4958120;29;20396;-85
2023/09/20 08:08:35;;;;;;;;;;;18.90;74.80;;;;;;4956980;29;19915;-84
2023/09/20 08:11:00;;;;;;;;;;;19.00;73.70;;;;;;4944492;29;19918;-84
2023/09/20 08:13:26;;;;;;;;;;;19.00;74.10;;;;;;4959142;29;19958;-84
2023/09/20 08:15:51;;;;;;;;;;;19.00;74.20;;;;;;4959176;29;20455;-84
2023/09/20 08:21:00;;;;;;;;;;;19.20;73.30;;;;;;4954550;29;20423;-84
2023/09/20 09:01:51;;;;;;;;;;;20.40;68.90;;;;;;4953144;29;19965;-86
2023/09/20 09:04:17;;;;;;;;;;;20.40;69.00;;;;;;4948081;29;19914;-84
2023/09/20 09:06:43;;;;;;;;;;;20.50;68.80;;;;;;4955934;29;19966;-84
2023/09/20 09:09:09;;;;;;;;;;;20.50;68.50;;;;;;4958366;29;19961;-85
2023/09/20 09:11:34;;;;;;;;;;;20.40;69.00;;;;;;4957450;29;19969;-85
2023/09/20 09:14:00;;;;;;;;;;;20.50;68.90;;;;;;4950039;29;19986;-85
2023/09/20 09:16:30;;;;;;;;;;;20.60;68.80;;;;;;4957313;29;19954;-84
2023/09/20 09:18:56;;;;;;;;;;;20.50;68.60;;;;;;4955259;29;20023;-84
2023/09/20 09:21:22;;;;;;;;;;;20.60;68.40;;;;;;4955149;29;19997;-85
2023/09/20 09:23:47;;;;;;;;;;;20.60;68.60;;;;;;4954664;29;19962;-85
2023/09/20 09:26:13;;;;;;;;;;;20.50;68.70;;;;;;4952536;29;19926;-85
2023/09/20 09:28:42;;;;;;;;;;;20.50;68.90;;;;;;4952808;29;19919;-82
2023/09/20 09:31:08;;;;;;;;;;;20.60;69.30;;;;;;4953689;28;19914;-83
2023/09/20 09:33:35;;;;;;;;;;;20.50;68.80;;;;;;4955396;28;19938;-85
2023/09/20 09:36:02;;;;;;;;;;;20.60;68.40;;;;;;4954132;29;19915;-84
2023/09/20 09:38:28;;;;;;;;;;;20.60;68.60;;;;;;4954125;29;19914;-84
2023/09/20 09:40:55;;;;;;;;;;;20.70;68.50;;;;;;4957410;28;20441;-83
2023/09/20 09:43:31;;;;;;;;;;;20.80;68.50;;;;;;4954166;28;20542;-83
2023/09/20 09:46:03;;;;;;;;;;;20.80;68.80;;;;;;4944890;28;19918;-84
2023/09/20 09:48:31;;;;;;;;;;;20.90;68.30;;;;;;4947792;28;20126;-83
2023/09/20 09:50:57;;;;;;;;;;;20.80;68.80;;;;;;4947509;28;20383;-84
2023/09/20 09:53:24;;;;;;;;;;;20.90;68.40;;;;;;4948999;29;19914;-83
2023/09/20 09:55:50;;;;;;;;;;;21.00;68.80;;;;;;4952630;29;19918;-85
2023/09/20 09:58:22;;;;;;;;;;;21.00;68.20;;;;;;4954868;29;19911;-83
2023/09/20 10:00:49;;;;;;;;;;;21.00;67.90;;;;;;4943716;29;19910;-82
2023/09/20 10:03:32;;;;;;;;;;;21.00;67.80;;;;;;4954235;28;19934;-83
2023/09/20 10:06:05;;;;;;;;;;;21.00;67.80;;;;;;4954271;29;19910;-83
2023/09/20 10:08:32;;;;;;;;;;;21.10;67.90;;;;;;4955541;29;19915;-83
2023/09/20 10:11:08;;;;;;;;;;;21.10;67.40;;;;;;4946398;29;19915;-82
2023/09/20 10:13:38;;;;;;;;;;;21.20;68.50;;;;;;4954525;29;19910;-84
2023/09/20 10:16:12;;;;;;;;;;;21.20;68.10;;;;;;4948369;29;20009;-82
2023/09/20 10:22:08;;;;;;;;;;;21.30;67.60;;;;;;4950859;29;19911;-82
2023/09/20 10:24:50;;;;;;;;;;;21.30;66.80;;;;;;4955763;29;19925;-83
2023/09/20 10:27:17;;;;;;;;;;;21.30;66.80;;;;;;4950271;29;19921;-82
2023/09/20 10:29:58;;;;;;;;;;;21.40;67.60;;;;;;4957404;29;19922;-83
2023/09/20 10:32:28;;;;;;;;;;;21.30;67.10;;;;;;4954434;28;19916;-83
2023/09/20 10:35:12;;;;;;;;;;;21.50;66.90;;;;;;4953048;29;19957;-83
2023/09/20 10:37:55;;;;;;;;;;;21.50;66.70;;;;;;4952833;29;19911;-82
2023/09/20 10:40:21;;;;;;;;;;;21.50;66.70;;;;;;4953226;29;19993;-82
2023/09/20 10:43:02;;;;;;;;;;;21.50;66.80;;;;;;4959732;28;19945;-83
2023/09/20 10:45:30;;;;;;;;;;;21.50;66.80;;;;;;4947257;29;19915;-82
2023/09/20 10:47:56;;;;;;;;;;;21.40;67.50;;;;;;4956517;28;19921;-82
2023/09/20 10:50:43;;;;;;;;;;;21.50;67.40;;;;;;4948014;29;19970;-82
2023/09/20 10:53:10;;;;;;;;;;;21.60;67.00;;;;;;4954530;28;20303;-82
2023/09/20 10:55:36;;;;;;;;;;;21.60;67.20;;;;;;4954437;29;19911;-81
2023/09/20 10:58:01;;;;;;;;;;;21.60;67.00;;;;;;4957770;28;19997;-82
2023/09/20 11:00:56;;;;;;;;;;;21.60;67.00;;;;;;4957004;29;20285;-83
2023/09/20 11:03:23;;;;;;;;;;;21.60;67.40;;;;;;4948641;28;19914;-82
2023/09/20 11:05:52;;;;;;;;;;;21.60;67.00;;;;;;4953417;28;19914;-82
2023/09/20 11:08:23;;;;;;;;;;;21.70;67.00;;;;;;4955745;29;19919;-84
2023/09/20 11:10:49;;;;;;;;;;;21.80;66.30;;;;;;4957102;29;19997;-82
2023/09/20 11:13:27;;;;;;;;;;;;;;;;;;;;;
2023/09/20 11:16:02;;;;;;;;;;;21.80;67.00;;;;;;4956027;29;19911;-83
2023/09/20 11:18:28;;;;;;;;;;;21.80;66.60;;;;;;4953007;29;20328;-83
2023/09/20 11:20:53;;;;;;;;;;;21.90;66.90;;;;;;4959266;28;19918;-82
2023/09/20 11:23:22;;;;;;;;;;;21.80;66.10;;;;;;4957079;29;20392;-83
2023/09/20 11:25:50;;;;;;;;;;;21.70;65.90;;;;;;4958247;29;19997;-83
2023/09/20 11:28:22;;;;;;;;;;;21.80;66.80;;;;;;4960695;29;20426;-83
2023/09/20 11:30:54;;;;;;;;;;;21.80;66.50;;;;;;4958451;28;19910;-82
2023/09/20 11:33:29;;;;;;;;;;;21.80;66.50;;;;;;4958046;29;19918;-82
2023/09/20 11:36:01;;;;;;;;;;;21.70;66.30;;;;;;4953881;29;20006;-83
2023/09/20 11:38:26;;;;;;;;;;;21.70;66.80;;;;;;4958151;29;19977;-83
2023/09/20 11:40:52;;;;;;;;;;;21.70;66.20;;;;;;4957389;28;19910;-83
2023/09/20 11:43:21;;;;;;;;;;;21.80;66.30;;;;;;4955186;28;19915;-84
2023/09/20 11:45:52;;;;;;;;;;;22.00;67.40;;;;;;4955422;29;19920;-82
2023/09/20 11:48:21;;;;;;;;;;;22.10;65.50;;;;;;4956560;29;20085;-86
2023/09/20 11:50:47;;;;;;;;;;;22.20;65.80;;;;;;4955772;29;20008;-83
2023/09/20 11:53:14;;;;;;;;;;;22.20;64.80;;;;;;4953075;29;19962;-85
2023/09/20 11:55:43;;;;;;;;;;;22.20;65.70;;;;;;4956118;29;20269;-81
2023/09/20 11:58:09;;;;;;;;;;;22.20;64.90;;;;;;4955268;29;20009;-85
2023/09/20 12:00:35;;;;;;;;;;;22.20;64.90;;;;;;4956235;29;19911;-84
2023/09/20 12:03:00;;;;;;;;;;;22.30;64.10;;;;;;4956091;28;20451;-81
2023/09/20 12:05:26;;;;;;;;;;;22.30;64.40;;;;;;4957917;29;19932;-86
2023/09/20 12:07:56;;;;;;;;;;;22.40;63.70;;;;;;4956711;28;19918;-82
2023/09/20 12:10:22;;;;;;;;;;;22.40;60.70;;;;;;4957758;29;19915;-81
2023/09/20 12:12:48;;;;;;;;;;;22.50;60.00;;;;;;4951139;28;19915;-82
2023/09/20 12:15:15;;;;;;;;;;;22.60;60.60;;;;;;4956296;29;20357;-82
2023/09/20 12:17:40;;;;;;;;;;;22.60;59.90;;;;;;4956886;28;19911;-85
2023/09/20 12:20:06;;;;;;;;;;;22.60;59.80;;;;;;4955862;29;19921;-83
2023/09/20 12:22:32;;;;;;;;;;;22.60;59.80;;;;;;4954410;29;19977;-84
2023/09/20 12:24:58;;;;;;;;;;;22.60;58.80;;;;;;4952717;29;19915;-82
2023/09/20 12:27:24;;;;;;;;;;;22.70;58.90;;;;;;4953351;29;19917;-83
2023/09/20 12:29:49;;;;;;;;;;;22.60;58.70;;;;;;4957302;28;19918;-83
2023/09/20 12:32:15;;;;;;;;;;;22.60;59.50;;;;;;4944696;29;20487;-82
2023/09/20 12:34:41;;;;;;;;;;;22.70;60.00;;;;;;4956814;28;19921;-83
2023/09/20 12:37:07;;;;;;;;;;;22.80;59.60;;;;;;4940246;29;19934;-82
2023/09/20 12:39:36;;;;;;;;;;;22.90;58.60;;;;;;4956359;29;19914;-83
2023/09/20 12:42:02;;;;;;;;;;;23.00;58.70;;;;;;4954232;29;19937;-83
2023/09/20 12:44:27;;;;;;;;;;;22.90;57.30;;;;;;4955581;29;20001;-83
2023/09/20 12:46:53;;;;;;;;;;;22.90;57.80;;;;;;4956452;28;20001;-83
2023/09/20 12:49:19;;;;;;;;;;;22.80;57.10;;;;;;4956970;28;19921;-83
2023/09/20 12:51:44;;;;;;;;;;;22.80;57.20;;;;;;4956593;28;19915;-82
2023/09/20 12:54:10;;;;;;;;;;;22.70;57.10;;;;;;4939204;29;19934;-82
2023/09/20 12:56:38;;;;;;;;;;;22.60;58.40;;;;;;4955309;29;19910;-82
2023/09/20 12:59:03;;;;;;;;;;;22.60;58.50;;;;;;4947048;29;20422;-83
2023/09/20 13:01:32;;;;;;;;;;;22.60;59.30;;;;;;4950217;29;19914;-81
2023/09/20 13:03:57;;;;;;;;;;;22.60;59.20;;;;;;4953767;28;19919;-82
2023/09/20 13:06:24;;;;;;;;;;;22.60;59.20;;;;;;4950173;29;19997;-83
2023/09/20 13:08:50;;;;;;;;;;;22.80;60.30;;;;;;4950935;28;19977;-82
2023/09/20 13:11:17;;;;;;;;;;;22.90;61.20;;;;;;4954341;28;19911;-82
2023/09/20 13:13:42;;;;;;;;;;;23.10;60.80;;;;;;4953816;28;19914;-82
2023/09/20 13:16:09;;;;;;;;;;;23.10;60.20;;;;;;4939911;29;20046;-85
2023/09/20 13:18:36;;;;;;;;;;;23.10;60.80;;;;;;4948441;29;19917;-85
2023/09/20 13:21:04;;;;;;;;;;;23.00;61.00;;;;;;4951129;28;19914;-85
2023/09/20 13:23:30;;;;;;;;;;;23.00;60.80;;;;;;4952362;28;20376;-85
2023/09/20 13:25:56;;;;;;;;;;;23.10;61.10;;;;;;4954487;28;19926;-85
2023/09/20 13:28:21;;;;;;;;;;;23.20;61.50;;;;;;4952179;29;19915;-84
2023/09/20 13:30:46;;;;;;;;;;;23.30;61.10;;;;;;4952593;29;19937;-85
2023/09/20 13:33:12;;;;;;;;;;;23.20;61.20;;;;;;4954720;28;19977;-85
2023/09/20 13:35:39;;;;;;;;;;;23.30;61.00;;;;;;4954084;28;19970;-85
2023/09/20 13:38:04;;;;;;;;;;;23.10;62.50;;;;;;4954635;28;20301;-85
2023/09/20 13:40:30;;;;;;;;;;;23.10;62.30;;;;;;4952455;29;19915;-85
2023/09/20 13:42:57;;;;;;;;;;;23.10;60.20;;;;;;4954266;28;19921;-86
2023/09/20 13:45:25;;;;;;;;;;;23.30;60.00;;;;;;4948557;29;19916;-85
2023/09/20 13:47:51;;;;;;;;;;;23.10;60.60;;;;;;4950186;28;19915;-86
2023/09/20 13:50:17;;;;;;;;;;;23.10;61.00;;;;;;4951904;29;19919;-84
2023/09/20 13:52:43;;;;;;;;;;;23.10;60.60;;;;;;4949586;29;19922;-84
2023/09/20 13:55:11;;;;;;;;;;;23.30;61.30;;;;;;4955001;29;19914;-84
2023/09/20 13:57:37;;;;;;;;;;;23.30;60.60;;;;;;4947396;28;20401;-84
2023/09/20 14:00:03;;;;;;;;;;;23.40;59.30;;;;;;4950376;29;19919;-83
2023/09/20 14:02:29;;;;;;;;;;;23.60;58.30;;;;;;4950610;29;19942;-83
2023/09/20 14:04:54;;;;;;;;;;;23.50;58.00;;;;;;4951311;28;20254;-84
2023/09/20 14:07:20;;;;;;;;;;;23.50;57.60;;;;;;4948151;29;19915;-83
2023/09/20 14:09:45;;;;;;;;;;;23.50;58.30;;;;;;4947512;29;19969;-85
2023/09/20 14:12:18;;;;;;;;;;;23.50;59.40;;;;;;4947236;29;19914;-84
2023/09/20 14:14:43;;;;;;;;;;;23.50;58.30;;;;;;4948168;29;19983;-86
2023/09/20 14:17:10;;;;;;;;;;;23.60;58.30;;;;;;4948117;28;19969;-82
2023/09/20 14:19:35;;;;;;;;;;;23.70;58.10;;;;;;4953457;29;20262;-83
2023/09/20 14:22:04;;;;;;;;;;;23.80;58.90;;;;;;4951999;29;19924;-84
2023/09/20 14:24:29;;;;;;;;;;;23.90;58.80;;;;;;4952158;29;19963;-84
2023/09/20 14:26:57;;;;;;;;;;;24.00;58.60;;;;;;4951078;29;19914;-84
2023/09/20 14:29:23;;;;;;;;;;;23.90;58.70;;;;;;4957553;29;19918;-83
2023/09/20 14:31:49;;;;;;;;;;;23.80;58.70;;;;;;4959571;28;19922;-83
2023/09/20 14:34:15;;;;;;;;;;;23.70;59.50;;;;;;4962851;28;20403;-83
2023/09/20 14:36:42;;;;;;;;;;;23.60;58.80;;;;;;4957177;28;19921;-83
2023/09/20 14:39:08;;;;;;;;;;;23.40;60.30;;;;;;4958377;29;19922;-83
2023/09/20 14:41:34;;;;;;;;;;;23.50;59.00;;;;;;4955813;28;20297;-84
2023/09/20 14:44:03;;;;;;;;;;;23.50;59.80;;;;;;4954963;28;19929;-84
2023/09/20 14:46:28;;;;;;;;;;;23.50;59.50;;;;;;4958186;29;19918;-84
2023/09/20 14:48:54;;;;;;;;;;;23.60;58.40;;;;;;4956377;29;19985;-84
2023/09/20 14:51:19;;;;;;;;;;;23.60;59.40;;;;;;4954205;29;19922;-84
2023/09/20 14:53:46;;;;;;;;;;;23.60;59.40;;;;;;4957800;28;20037;-85
2023/09/20 14:56:13;;;;;;;;;;;23.60;57.40;;;;;;4958154;29;20261;-86
2023/09/20 14:58:38;;;;;;;;;;;23.60;57.70;;;;;;4957005;29;19915;-84
2023/09/20 15:01:16;;;;;;;;;;;23.70;56.70;;;;;;4955931;29;20009;-83
2023/09/20 15:03:42;;;;;;;;;;;23.60;57.20;;;;;;4955266;29;20443;-83
2023/09/20 15:06:14;;;;;;;;;;;23.60;56.30;;;;;;4957133;29;19984;-85
2023/09/20 15:08:42;;;;;;;;;;;23.60;57.80;;;;;;4953557;29;20017;-83
2023/09/20 15:11:07;;;;;;;;;;;23.60;56.40;;;;;;4950597;29;20005;-85
2023/09/20 15:13:33;;;;;;;;;;;23.60;56.50;;;;;;4953576;28;20013;-85
2023/09/20 15:15:58;;;;;;;;;;;23.50;56.40;;;;;;4953571;28;19942;-84
2023/09/20 15:18:27;;;;;;;;;;;23.40;56.40;;;;;;4952546;29;19990;-86
2023/09/20 15:20:53;;;;;;;;;;;23.50;56.90;;;;;;4955171;29;19947;-84
2023/09/20 15:23:18;;;;;;;;;;;23.50;56.50;;;;;;4953702;29;19989;-85
2023/09/20 15:25:44;;;;;;;;;;;23.30;56.80;;;;;;4954488;29;20388;-83
2023/09/20 15:28:10;;;;;;;;;;;23.20;57.50;;;;;;4957977;29;19926;-84
2023/09/20 15:30:39;;;;;;;;;;;23.20;58.20;;;;;;4956005;29;19917;-83